Country Club Hills, Missouri
Current Conditions -  °F | °C
As of 1:51 PM on Thursday 27 Nov 2014 (Local Time) from KSTL Reporting Station
Scattered Clouds Scattered Clouds  
Wind Chill: -4°   Ceiling: Unl
Heat Index:   Visibility: 10mi
Dew Point: -6°   Wind: 13mph
Humidity: 59%   Direction: 300°WNW
Pressure: 30.46"   Gusts: 18mph
Location:  38.7423°N, 90.2608°W
Report Text: KSTL 271951Z 30011G16KT 10SM SCT032 SCT250 01/M06 A3046 RMK AO2 SLP324 T00111061 $
Loading
Personal Weather Stations






























Interactive Weather Map New forecast layout! Learn more

10-Day Weather Forecast

Advertisements
Track Severe Weather on mobile